createdAt,value
2022-10-23T00:01:19.324Z,83.80
2022-10-23T00:03:46.773Z,84.20
2022-10-23T00:06:14.629Z,80.10
2022-10-23T00:08:42.103Z,84.40
2022-10-23T00:11:11.493Z,84.50
2022-10-23T00:13:38.766Z,84.60
2022-10-23T00:16:06.085Z,85.20
2022-10-23T00:18:33.633Z,86.00
2022-10-23T00:21:00.717Z,84.90
2022-10-23T00:23:27.527Z,85.00
2022-10-23T00:35:43.274Z,85.60
2022-10-23T00:38:11.142Z,85.50
2022-10-23T00:40:39.541Z,85.50
2022-10-23T00:43:11.308Z,85.40
2022-10-23T00:45:38.021Z,85.70
2022-10-23T00:48:04.992Z,85.70
2022-10-23T00:50:32.970Z,86.90
2022-10-23T00:53:02.338Z,82.40
2022-10-23T00:55:30.609Z,86.00
2022-10-23T01:00:47.455Z,86.60
2022-10-23T01:03:16.295Z,86.30
2022-10-23T01:05:58.441Z,82.10
2022-10-23T01:08:50.321Z,85.80
2022-10-23T01:11:35.026Z,87.30
2022-10-23T01:14:08.235Z,86.10
2022-10-23T01:21:43.539Z,86.10
2022-10-23T01:24:51.199Z,85.80
2022-10-23T01:27:22.281Z,85.90
2022-10-23T01:29:59.241Z,82.10
2022-10-23T01:35:05.835Z,86.20
2022-10-23T01:37:51.424Z,86.40
2022-10-23T01:40:44.234Z,82.50
2022-10-23T01:43:38.543Z,86.40
2022-10-23T01:46:09.478Z,86.70
2022-10-23T01:48:38.797Z,87.70
2022-10-23T01:51:09.770Z,83.70
2022-10-23T01:53:41.616Z,87.90
2022-10-23T01:56:14.326Z,87.40
2022-10-23T01:58:45.501Z,86.70
2022-10-23T02:01:14.911Z,82.70
2022-10-23T02:03:49.834Z,87.10
2022-10-23T02:06:17.385Z,87.00
2022-10-23T02:08:44.296Z,83.70
2022-10-23T02:11:15.291Z,87.50
2022-10-23T02:13:51.513Z,87.10
2022-10-23T02:16:44.889Z,86.90
2022-10-23T02:19:41.137Z,82.90
2022-10-23T02:22:23.874Z,87.20
2022-10-23T02:24:55.886Z,87.20
2022-10-23T02:27:50.851Z,83.90
2022-10-23T02:30:20.117Z,87.30
2022-10-23T02:32:58.860Z,87.30
2022-10-23T02:35:26.188Z,83.70
2022-10-23T02:38:01.895Z,87.40
2022-10-23T02:40:40.999Z,83.30
2022-10-23T02:43:13.761Z,87.50
2022-10-23T02:46:10.245Z,87.60
2022-10-23T02:48:47.846Z,83.60
2022-10-23T02:51:32.507Z,87.70
2022-10-23T02:54:22.850Z,83.80
2022-10-23T02:57:04.335Z,83.70
2022-10-23T02:59:40.545Z,87.90
2022-10-23T03:02:16.980Z,87.50
2022-10-23T03:04:45.173Z,88.10
2022-10-23T03:07:13.605Z,87.90
2022-10-23T03:09:41.900Z,88.00
2022-10-23T03:12:08.629Z,84.90
2022-10-23T03:14:36.920Z,84.00
2022-10-23T03:17:04.712Z,88.30
2022-10-23T03:19:31.328Z,88.20
2022-10-23T03:24:25.883Z,88.30
2022-10-23T03:29:29.039Z,88.40
2022-10-23T03:31:55.769Z,86.10
2022-10-23T03:34:22.520Z,87.40
2022-10-23T03:36:49.246Z,88.60
2022-10-23T03:39:16.876Z,86.70
2022-10-23T03:41:43.918Z,89.90
2022-10-23T03:44:10.557Z,84.50
2022-10-23T03:46:37.237Z,89.20
2022-10-23T03:49:04.382Z,84.80
2022-10-23T03:51:31.052Z,88.50
2022-10-23T03:53:57.755Z,88.60
2022-10-23T03:58:51.732Z,89.50
2022-10-23T04:03:46.207Z,89.50
2022-10-23T04:06:15.157Z,88.70
2022-10-23T04:08:44.200Z,88.90
2022-10-23T04:13:45.669Z,89.00
2022-10-23T04:18:43.004Z,89.20
2022-10-23T04:21:11.006Z,89.00
2022-10-23T04:23:38.844Z,89.10
2022-10-23T04:26:10.878Z,90.30
2022-10-23T04:31:04.851Z,89.10
2022-10-23T04:33:31.531Z,89.10
2022-10-23T04:38:26.092Z,90.10
2022-10-23T04:40:52.780Z,87.50
2022-10-23T04:43:21.740Z,89.00
2022-10-23T04:45:49.388Z,89.00
2022-10-23T04:48:16.082Z,89.30
2022-10-23T04:53:53.600Z,89.30
2022-10-23T04:59:03.001Z,89.30
2022-10-23T05:06:26.031Z,89.40
2022-10-23T05:09:09.791Z,89.40
2022-10-23T05:12:15.160Z,90.20
2022-10-23T05:17:20.996Z,89.50
2022-10-23T05:19:53.275Z,85.40
2022-10-23T05:22:26.715Z,89.60
2022-10-23T05:27:25.823Z,89.70
2022-10-23T05:32:27.689Z,85.50
2022-10-23T05:34:55.294Z,89.50
2022-10-23T05:37:25.983Z,85.50
2022-10-23T05:42:29.466Z,90.40
2022-10-23T05:53:31.587Z,89.40
2022-10-23T05:56:11.913Z,89.20
2022-10-23T05:58:47.214Z,88.90
2022-10-23T06:01:34.475Z,89.30
2022-10-23T06:04:05.813Z,90.10
2022-10-23T06:06:58.922Z,88.90
2022-10-23T06:09:25.638Z,89.90
2022-10-23T06:11:56.850Z,89.20
2022-10-23T06:14:23.748Z,85.80
2022-10-23T06:16:51.911Z,89.40
2022-10-23T06:21:49.930Z,89.30
2022-10-23T06:24:17.335Z,89.40
2022-10-23T06:29:42.667Z,89.60
2022-10-23T06:34:37.493Z,90.30
2022-10-23T06:37:06.901Z,89.60
2022-10-23T06:40:00.100Z,89.60
2022-10-23T06:42:52.089Z,90.50
2022-10-23T06:45:37.448Z,88.00
2022-10-23T06:48:13.332Z,87.70
2022-10-23T06:51:08.017Z,89.70
2022-10-23T06:53:41.314Z,89.80
2022-10-23T06:56:21.325Z,89.90
2022-10-23T07:06:12.672Z,90.00
2022-10-23T07:11:25.708Z,85.70
2022-10-23T07:13:53.739Z,90.30
2022-10-23T07:16:22.912Z,85.40
2022-10-23T07:18:58.743Z,89.60
2022-10-23T07:21:34.631Z,85.60
2022-10-23T07:24:19.911Z,89.60
2022-10-23T07:26:46.637Z,90.00
2022-10-23T07:29:14.308Z,89.80
2022-10-23T07:34:32.012Z,90.00
2022-10-23T07:39:46.657Z,89.40
2022-10-23T07:42:13.856Z,89.00
2022-10-23T07:44:41.463Z,88.90
2022-10-23T07:47:08.221Z,89.30
2022-10-23T07:49:35.455Z,90.00
2022-10-23T07:54:40.453Z,88.80
2022-10-23T07:57:21.157Z,85.10
2022-10-23T07:59:58.605Z,90.00
2022-10-23T08:02:25.301Z,88.80
2022-10-23T08:04:52.700Z,88.60
2022-10-23T08:14:55.640Z,88.10
2022-10-23T08:19:57.900Z,88.70
2022-10-23T08:22:27.662Z,88.10
2022-10-23T08:24:54.600Z,84.30
2022-10-23T08:32:16.644Z,87.30
2022-10-23T08:34:58.385Z,88.40
2022-10-23T08:39:55.954Z,87.90
2022-10-23T08:42:46.517Z,83.60
2022-10-23T08:45:31.876Z,87.10
2022-10-23T08:48:40.704Z,87.00
2022-10-23T08:51:42.183Z,88.00
2022-10-23T08:54:15.785Z,88.50
2022-10-23T08:56:47.080Z,87.30
2022-10-23T08:59:39.958Z,88.10
2022-10-23T09:02:21.846Z,87.00
2022-10-23T09:04:51.917Z,84.10
2022-10-23T09:07:21.307Z,88.60
2022-10-23T09:09:57.092Z,87.10
2022-10-23T09:12:27.631Z,84.00
2022-10-23T09:15:03.561Z,86.50
2022-10-23T09:17:37.863Z,83.50
2022-10-23T09:20:07.586Z,85.70
2022-10-23T09:22:34.293Z,85.90
2022-10-23T09:25:00.950Z,86.40
2022-10-23T09:27:27.680Z,84.70
2022-10-23T09:29:55.817Z,81.30
2022-10-23T09:32:42.875Z,84.40
2022-10-23T09:35:25.088Z,84.50
2022-10-23T09:37:54.924Z,81.70
2022-10-23T09:40:27.164Z,84.50
2022-10-23T09:43:03.970Z,84.70
2022-10-23T09:45:35.106Z,81.20
2022-10-23T09:48:13.204Z,82.40
2022-10-23T09:50:47.467Z,81.60
2022-10-23T09:53:27.072Z,85.20
2022-10-23T09:55:56.889Z,84.70
2022-10-23T09:58:33.699Z,85.60
2022-10-23T10:01:01.031Z,84.90
2022-10-23T10:03:48.958Z,82.10
2022-10-23T10:06:27.278Z,85.20
2022-10-23T10:09:00.016Z,84.80
2022-10-23T10:11:45.568Z,84.40
2022-10-23T10:14:42.425Z,85.80
2022-10-23T10:17:19.079Z,85.60
2022-10-23T10:20:29.087Z,84.40
2022-10-23T10:22:58.841Z,84.40
2022-10-23T10:26:07.967Z,83.40
2022-10-23T10:29:06.974Z,83.40
2022-10-23T10:31:53.852Z,80.10
2022-10-23T10:34:25.686Z,83.20
2022-10-23T10:37:05.842Z,79.70
2022-10-23T10:39:45.880Z,79.90
2022-10-23T10:42:41.376Z,80.90
2022-10-23T10:48:03.880Z,79.90
2022-10-23T10:50:56.349Z,84.30
2022-10-23T10:53:55.456Z,83.70
2022-10-23T10:56:25.077Z,82.50
2022-10-23T10:58:56.511Z,82.10
2022-10-23T11:01:30.637Z,82.00
2022-10-23T11:04:06.691Z,82.00
2022-10-23T11:06:36.024Z,82.70
2022-10-23T11:09:22.351Z,82.70
2022-10-23T11:11:49.296Z,82.10
2022-10-23T11:14:22.692Z,82.80
2022-10-23T11:17:10.383Z,81.10
2022-10-23T11:20:01.028Z,82.30
2022-10-23T11:22:33.393Z,80.80
2022-10-23T11:25:07.864Z,80.60
2022-10-23T11:27:49.756Z,81.50
2022-10-23T11:30:24.765Z,81.70
2022-10-23T11:33:01.357Z,78.90
2022-10-23T11:35:55.962Z,78.70
2022-10-23T11:38:28.997Z,81.20
2022-10-23T11:40:57.116Z,78.40
2022-10-23T11:43:46.709Z,81.10
2022-10-23T11:46:15.252Z,81.50
2022-10-23T11:48:44.138Z,80.40
2022-10-23T11:51:27.074Z,77.20
2022-10-23T11:54:04.678Z,77.40
2022-10-23T11:56:31.532Z,76.50
2022-10-23T11:58:59.351Z,78.80
2022-10-23T12:01:36.038Z,75.70
2022-10-23T12:04:12.277Z,78.90
2022-10-23T12:06:48.324Z,74.70
2022-10-23T12:09:44.116Z,74.30
2022-10-23T12:12:10.712Z,73.80
2022-10-23T12:14:44.625Z,75.20
2022-10-23T12:17:23.371Z,73.30
2022-10-23T12:20:02.363Z,76.00
2022-10-23T12:22:45.215Z,72.50
2022-10-23T12:25:39.001Z,72.40
2022-10-23T12:28:19.680Z,72.40
2022-10-23T12:31:15.378Z,72.20
2022-10-23T12:34:07.779Z,72.60
2022-10-23T12:36:40.466Z,72.30
2022-10-23T12:39:26.207Z,71.90
2022-10-23T12:41:53.067Z,72.10
2022-10-23T12:44:20.120Z,71.60
2022-10-23T12:46:48.888Z,72.10
2022-10-23T12:49:24.800Z,72.20
2022-10-23T12:52:18.845Z,72.60
2022-10-23T12:54:45.623Z,71.90
2022-10-23T12:57:24.061Z,71.60
2022-10-23T12:59:55.264Z,71.60
2022-10-23T13:02:24.179Z,71.70
2022-10-23T13:04:53.422Z,73.90
2022-10-23T13:07:25.336Z,72.00
2022-10-23T13:09:52.941Z,73.90
2022-10-23T13:12:29.849Z,71.80
2022-10-23T13:15:08.911Z,71.40
2022-10-23T13:17:38.518Z,72.20
2022-10-23T13:20:26.424Z,71.30
2022-10-23T13:23:15.512Z,71.30
2022-10-23T13:25:42.333Z,70.90
2022-10-23T13:28:24.955Z,73.10
2022-10-23T13:31:17.711Z,74.80
2022-10-23T13:33:52.553Z,71.20
2022-10-23T13:36:23.221Z,72.90
2022-10-23T13:38:58.977Z,71.00
2022-10-23T13:41:27.502Z,71.10
2022-10-23T13:43:54.180Z,71.00
2022-10-23T13:46:23.247Z,70.70
2022-10-23T13:48:49.985Z,70.80
2022-10-23T13:51:24.196Z,70.40
2022-10-23T13:53:52.707Z,70.10
2022-10-23T13:56:22.865Z,70.00
2022-10-23T13:58:49.810Z,70.10
2022-10-23T14:01:35.945Z,70.00
2022-10-23T14:04:04.324Z,69.80
2022-10-23T14:06:32.290Z,71.90
2022-10-23T14:08:59.170Z,69.70
2022-10-23T14:11:26.546Z,70.00
2022-10-23T14:13:53.187Z,69.60
2022-10-23T14:16:23.365Z,69.70
2022-10-23T14:18:50.395Z,73.10
2022-10-23T14:21:22.523Z,70.00
2022-10-23T14:23:50.253Z,72.70
2022-10-23T14:26:20.482Z,70.00
2022-10-23T14:28:47.237Z,70.20
2022-10-23T14:31:16.743Z,70.00
2022-10-23T14:33:45.088Z,70.20
2022-10-23T14:36:12.737Z,70.30
2022-10-23T14:38:39.495Z,68.30
2022-10-23T14:41:14.154Z,67.10
2022-10-23T14:43:42.528Z,66.70
2022-10-23T14:46:14.994Z,66.80
2022-10-23T14:48:45.463Z,67.10
2022-10-23T14:51:20.742Z,67.40
2022-10-23T14:53:48.412Z,69.70
2022-10-23T14:56:15.912Z,68.20
2022-10-23T14:58:43.246Z,68.50
2022-10-23T15:01:10.693Z,68.60
2022-10-23T15:03:38.228Z,69.10
2022-10-23T15:06:06.462Z,69.10
2022-10-23T15:08:33.510Z,69.00
2022-10-23T15:11:01.673Z,69.70
2022-10-23T15:13:31.226Z,69.10
2022-10-23T15:16:10.016Z,69.30
2022-10-23T15:21:08.475Z,70.00
2022-10-23T15:23:38.175Z,74.30
2022-10-23T15:26:07.956Z,70.60
2022-10-23T15:28:35.479Z,71.20
2022-10-23T15:31:02.230Z,70.90
2022-10-23T15:33:29.356Z,71.80
2022-10-23T15:35:56.481Z,71.80
2022-10-23T15:38:24.420Z,73.90
2022-10-23T15:40:51.776Z,72.20
2022-10-23T15:43:18.414Z,74.80
2022-10-23T15:45:45.681Z,72.50
2022-10-23T15:48:12.691Z,72.30
2022-10-23T15:50:39.377Z,73.00
2022-10-23T15:53:05.992Z,72.90
2022-10-23T15:55:33.473Z,75.20
2022-10-23T15:58:04.003Z,76.40
2022-10-23T16:00:30.843Z,73.70
2022-10-23T16:02:58.113Z,76.40
2022-10-23T16:05:24.791Z,76.40
2022-10-23T16:07:51.383Z,73.70
2022-10-23T16:10:18.707Z,75.70
2022-10-23T16:12:45.754Z,76.30
2022-10-23T16:15:12.638Z,77.10
2022-10-23T16:17:39.224Z,74.20
2022-10-23T16:20:06.494Z,73.90
2022-10-23T16:22:33.172Z,74.20
2022-10-23T16:24:59.773Z,74.30
2022-10-23T16:27:26.516Z,78.00
2022-10-23T16:29:53.159Z,74.50
2022-10-23T16:32:19.846Z,76.40
2022-10-23T16:34:46.423Z,74.00
2022-10-23T16:37:13.076Z,77.90
2022-10-23T16:39:47.740Z,76.50
2022-10-23T16:42:37.871Z,78.30
2022-10-23T16:45:11.811Z,76.60
2022-10-23T16:47:38.402Z,74.70
2022-10-23T16:50:05.395Z,74.10
2022-10-23T16:52:33.217Z,78.00
2022-10-23T16:55:00.091Z,74.80
2022-10-23T16:57:27.926Z,77.00
2022-10-23T16:59:54.814Z,75.00
2022-10-23T17:02:21.572Z,78.70
2022-10-23T17:04:48.463Z,75.10
2022-10-23T17:07:15.171Z,77.30
2022-10-23T17:09:43.776Z,75.30
2022-10-23T17:12:10.455Z,75.00
2022-10-23T17:14:38.181Z,75.40
2022-10-23T17:17:06.763Z,77.90
2022-10-23T17:19:44.530Z,77.80
2022-10-23T17:22:13.151Z,75.90
2022-10-23T17:24:41.300Z,79.30
2022-10-23T17:27:08.346Z,75.80
2022-10-23T17:29:35.195Z,75.80
2022-10-23T17:32:02.631Z,75.90
2022-10-23T17:34:29.499Z,78.10
2022-10-23T17:36:56.624Z,76.10
2022-10-23T17:39:28.227Z,75.60
2022-10-23T17:41:55.375Z,78.50
2022-10-23T17:44:22.323Z,76.40
2022-10-23T17:46:53.679Z,76.40
2022-10-23T17:49:21.728Z,80.00
2022-10-23T17:51:54.802Z,80.10
2022-10-23T17:54:21.900Z,76.70
2022-10-23T17:56:48.588Z,76.50
2022-10-23T17:59:16.063Z,76.80
2022-10-23T18:01:43.831Z,79.10
2022-10-23T18:04:10.700Z,76.90
2022-10-23T18:06:43.054Z,77.00
2022-10-23T18:09:09.837Z,79.50
2022-10-23T18:11:43.857Z,79.50
2022-10-23T18:14:15.809Z,79.10
2022-10-23T18:16:42.726Z,80.30
2022-10-23T18:19:10.720Z,79.30
2022-10-23T18:21:37.953Z,81.10
2022-10-23T18:24:05.027Z,79.60
2022-10-23T18:26:34.861Z,80.80
2022-10-23T18:29:04.131Z,79.50
2022-10-23T18:31:30.945Z,77.20
2022-10-23T18:34:01.284Z,79.20
2022-10-23T18:36:30.645Z,77.00
2022-10-23T18:38:57.900Z,79.20
2022-10-23T18:41:24.834Z,80.30
2022-10-23T18:43:52.932Z,79.00
2022-10-23T18:46:20.472Z,76.80
2022-10-23T18:48:47.979Z,79.90
2022-10-23T18:51:18.916Z,76.60
2022-10-23T18:53:46.700Z,76.20
2022-10-23T18:56:22.383Z,78.90
2022-10-23T18:59:03.631Z,76.40
2022-10-23T19:01:31.323Z,77.10
2022-10-23T19:04:00.215Z,79.30
2022-10-23T19:06:28.100Z,81.40
2022-10-23T19:08:54.923Z,77.60
2022-10-23T19:11:23.859Z,81.20
2022-10-23T19:13:50.750Z,78.00
2022-10-23T19:16:33.523Z,80.10
2022-10-23T19:19:20.762Z,80.40
2022-10-23T19:21:48.331Z,78.30
2022-10-23T19:24:20.325Z,78.70
2022-10-23T19:26:47.495Z,79.00
2022-10-23T19:29:18.988Z,78.70
2022-10-23T19:31:49.198Z,82.80
2022-10-23T19:34:19.835Z,79.40
2022-10-23T19:36:48.006Z,82.30
2022-10-23T19:39:14.735Z,79.60
2022-10-23T19:41:41.418Z,79.60
2022-10-23T19:44:08.217Z,82.70
2022-10-23T19:46:38.381Z,79.10
2022-10-23T19:49:05.891Z,82.00
2022-10-23T19:51:33.074Z,81.80
2022-10-23T19:54:00.365Z,82.10
2022-10-23T19:56:27.521Z,81.90
2022-10-23T19:58:54.294Z,79.90
2022-10-23T20:01:24.325Z,81.60
2022-10-23T20:03:51.317Z,79.90
2022-10-23T20:06:21.155Z,82.20
2022-10-23T20:08:48.426Z,83.30
2022-10-23T20:11:36.181Z,80.30
2022-10-23T20:14:03.588Z,82.50
2022-10-23T20:16:35.899Z,83.20
2022-10-23T20:19:06.750Z,83.70
2022-10-23T20:21:36.464Z,83.50
2022-10-23T20:24:03.181Z,82.60
2022-10-23T20:26:29.746Z,80.30
2022-10-23T20:28:57.433Z,82.60
2022-10-23T20:31:26.284Z,83.60
2022-10-23T20:33:54.221Z,80.20
2022-10-23T20:36:24.563Z,79.80
2022-10-23T20:38:51.955Z,82.10
2022-10-23T20:41:18.813Z,81.80
2022-10-23T20:43:45.925Z,79.50
2022-10-23T20:46:12.795Z,81.90
2022-10-23T20:48:41.757Z,79.30
2022-10-23T20:51:11.296Z,82.60
2022-10-23T20:53:38.638Z,81.70
2022-10-23T20:56:10.325Z,80.30
2022-10-23T20:58:37.056Z,80.00
2022-10-23T21:01:04.762Z,77.10
2022-10-23T21:03:31.631Z,77.20
2022-10-23T21:06:05.672Z,76.40
2022-10-23T21:08:32.541Z,79.00
2022-10-23T21:10:59.604Z,77.40
2022-10-23T21:13:28.743Z,75.50
2022-10-23T21:15:55.948Z,78.40
2022-10-23T21:18:34.216Z,79.20
2022-10-23T21:21:12.640Z,79.40
2022-10-23T21:23:39.743Z,78.70
2022-10-23T21:26:07.577Z,75.70
2022-10-23T21:28:34.976Z,75.00
2022-10-23T21:31:03.647Z,78.80
2022-10-23T21:33:30.792Z,78.20
2022-10-23T21:36:04.814Z,78.30
2022-10-23T21:38:39.805Z,79.20
2022-10-23T21:41:13.759Z,78.80
2022-10-23T21:43:40.919Z,76.10
2022-10-23T21:46:12.523Z,79.80
2022-10-23T21:48:39.699Z,78.40
2022-10-23T21:51:07.271Z,80.00
2022-10-23T21:53:33.892Z,75.90
2022-10-23T21:56:04.204Z,78.40
2022-10-23T21:58:31.580Z,78.40
2022-10-23T22:00:58.545Z,75.70
2022-10-23T22:03:25.385Z,75.80
2022-10-23T22:05:52.002Z,75.20
2022-10-23T22:08:18.641Z,78.60
2022-10-23T22:10:45.278Z,75.70
2022-10-23T22:13:11.978Z,75.20
2022-10-23T22:15:38.662Z,76.50
2022-10-23T22:18:05.301Z,75.50
2022-10-23T22:20:31.940Z,77.20
2022-10-23T22:22:58.631Z,78.10
2022-10-23T22:25:25.368Z,75.40
2022-10-23T22:27:52.279Z,78.30
2022-10-23T22:30:18.921Z,78.60
2022-10-23T22:32:45.834Z,78.80
2022-10-23T22:35:12.739Z,79.00
2022-10-23T22:37:39.370Z,79.20
2022-10-23T22:40:07.349Z,76.70
2022-10-23T22:42:34.072Z,80.00
2022-10-23T22:45:00.691Z,80.00
2022-10-23T22:47:29.256Z,80.10
2022-10-23T22:52:23.031Z,80.40
2022-10-23T22:54:49.654Z,80.80
2022-10-23T22:57:16.453Z,80.60
2022-10-23T22:59:43.164Z,80.70
2022-10-23T23:02:09.992Z,81.70
2022-10-23T23:04:38.176Z,81.40
2022-10-23T23:07:08.093Z,81.80
2022-10-23T23:09:39.512Z,78.40
2022-10-23T23:12:07.689Z,78.50
2022-10-23T23:17:01.861Z,77.90
2022-10-23T23:19:28.528Z,77.60
2022-10-23T23:21:56.963Z,82.00
2022-10-23T23:24:24.292Z,81.50
2022-10-23T23:26:51.082Z,81.50
2022-10-23T23:29:18.011Z,78.40
2022-10-23T23:31:44.832Z,81.20
2022-10-23T23:34:11.414Z,78.50
2022-10-23T23:36:38.272Z,78.40
2022-10-23T23:41:37.333Z,83.50
2022-10-23T23:44:04.423Z,79.30
2022-10-23T23:46:31.101Z,82.40
2022-10-23T23:48:57.718Z,79.70
2022-10-23T23:51:26.026Z,84.30
2022-10-23T23:53:53.090Z,82.70
2022-10-23T23:56:20.450Z,83.00
2022-10-23T23:58:47.134Z,83.70
